sensor_id;sensor_type;location;lat;lon;timestamp;temperature;humidity
23721;DHT22;42950;52.134;5.578;2023-06-22T00:00:53;19.90;99.90
23721;DHT22;42950;52.134;5.578;2023-06-22T00:03:19;19.80;99.90
23721;DHT22;42950;52.134;5.578;2023-06-22T00:05:48;19.80;99.90
23721;DHT22;42950;52.134;5.578;2023-06-22T00:08:15;19.90;99.90
23721;DHT22;42950;52.134;5.578;2023-06-22T00:10:41;19.90;99.90
23721;DHT22;42950;52.134;5.578;2023-06-22T00:13:08;19.90;99.90
23721;DHT22;42950;52.134;5.578;2023-06-22T00:15:34;19.90;99.90
23721;DHT22;42950;52.134;5.578;2023-06-22T00:18:07;19.90;99.90
23721;DHT22;42950;52.134;5.578;2023-06-22T00:20:34;19.80;99.90
23721;DHT22;42950;52.134;5.578;2023-06-22T00:23:05;19.70;99.90
23721;DHT22;42950;52.134;5.578;2023-06-22T00:25:37;19.50;99.90
23721;DHT22;42950;52.134;5.578;2023-06-22T00:28:04;19.40;99.90
23721;DHT22;42950;52.134;5.578;2023-06-22T00:30:30;19.30;99.90
23721;DHT22;42950;52.134;5.578;2023-06-22T00:32:58;19.40;99.90
23721;DHT22;42950;52.134;5.578;2023-06-22T00:35:24;19.40;99.90
23721;DHT22;42950;52.134;5.578;2023-06-22T00:37:56;19.40;99.90
23721;DHT22;42950;52.134;5.578;2023-06-22T00:40:27;19.30;99.90
23721;DHT22;42950;52.134;5.578;2023-06-22T00:42:53;19.20;99.90
23721;DHT22;42950;52.134;5.578;2023-06-22T00:45:18;19.20;99.90
23721;DHT22;42950;52.134;5.578;2023-06-22T00:47:46;19.10;99.90
23721;DHT22;42950;52.134;5.578;2023-06-22T00:50:18;19.20;99.90
23721;DHT22;42950;52.134;5.578;2023-06-22T00:52:51;19.20;99.90
23721;DHT22;42950;52.134;5.578;2023-06-22T00:55:17;19.20;99.90
23721;DHT22;42950;52.134;5.578;2023-06-22T00:57:45;19.10;99.90
23721;DHT22;42950;52.134;5.578;2023-06-22T01:00:12;19.00;99.90
23721;DHT22;42950;52.134;5.578;2023-06-22T01:02:45;19.00;99.90
23721;DHT22;42950;52.134;5.578;2023-06-22T01:05:13;19.00;99.90
23721;DHT22;42950;52.134;5.578;2023-06-22T01:07:56;19.00;99.90
23721;DHT22;42950;52.134;5.578;2023-06-22T01:12:53;19.10;99.90
23721;DHT22;42950;52.134;5.578;2023-06-22T01:15:30;19.00;99.90
23721;DHT22;42950;52.134;5.578;2023-06-22T01:17:57;19.00;99.90
23721;DHT22;42950;52.134;5.578;2023-06-22T01:20:25;19.00;99.90
23721;DHT22;42950;52.134;5.578;2023-06-22T01:23:24;18.90;99.90
23721;DHT22;42950;52.134;5.578;2023-06-22T01:26:10;18.90;99.90
23721;DHT22;42950;52.134;5.578;2023-06-22T01:28:45;18.90;99.90
23721;DHT22;42950;52.134;5.578;2023-06-22T01:31:14;18.80;99.90
23721;DHT22;42950;52.134;5.578;2023-06-22T01:33:44;18.80;99.90
23721;DHT22;42950;52.134;5.578;2023-06-22T01:36:12;18.80;99.90
23721;DHT22;42950;52.134;5.578;2023-06-22T01:38:39;18.70;99.90
23721;DHT22;42950;52.134;5.578;2023-06-22T01:41:05;18.70;99.90
23721;DHT22;42950;52.134;5.578;2023-06-22T01:43:32;18.70;99.90
23721;DHT22;42950;52.134;5.578;2023-06-22T01:46:00;18.60;99.90
23721;DHT22;42950;52.134;5.578;2023-06-22T01:48:26;18.60;99.90
23721;DHT22;42950;52.134;5.578;2023-06-22T01:50:53;18.60;99.90
23721;DHT22;42950;52.134;5.578;2023-06-22T01:53:22;18.60;99.90
23721;DHT22;42950;52.134;5.578;2023-06-22T01:55:48;18.50;99.90
23721;DHT22;42950;52.134;5.578;2023-06-22T01:58:14;18.40;99.90
23721;DHT22;42950;52.134;5.578;2023-06-22T02:00:45;18.40;99.90
23721;DHT22;42950;52.134;5.578;2023-06-22T02:03:16;18.30;99.90
23721;DHT22;42950;52.134;5.578;2023-06-22T02:05:56;18.30;99.90
23721;DHT22;42950;52.134;5.578;2023-06-22T02:08:51;18.30;99.90
23721;DHT22;42950;52.134;5.578;2023-06-22T02:11:18;18.30;99.90
23721;DHT22;42950;52.134;5.578;2023-06-22T02:13:46;18.10;99.90
23721;DHT22;42950;52.134;5.578;2023-06-22T02:16:12;18.10;99.90
23721;DHT22;42950;52.134;5.578;2023-06-22T02:18:38;18.10;99.90
23721;DHT22;42950;52.134;5.578;2023-06-22T02:21:06;18.00;99.90
23721;DHT22;42950;52.134;5.578;2023-06-22T02:23:32;18.00;99.90
23721;DHT22;42950;52.134;5.578;2023-06-22T02:26:02;18.00;99.90
23721;DHT22;42950;52.134;5.578;2023-06-22T02:28:28;18.00;99.90
23721;DHT22;42950;52.134;5.578;2023-06-22T02:30:53;17.90;99.90
23721;DHT22;42950;52.134;5.578;2023-06-22T02:33:19;17.90;99.90
23721;DHT22;42950;52.134;5.578;2023-06-22T02:35:45;17.90;99.90
23721;DHT22;42950;52.134;5.578;2023-06-22T02:38:14;17.90;99.90
23721;DHT22;42950;52.134;5.578;2023-06-22T02:40:40;17.90;99.90
23721;DHT22;42950;52.134;5.578;2023-06-22T02:43:07;17.80;99.90
23721;DHT22;42950;52.134;5.578;2023-06-22T02:45:32;17.90;99.90
23721;DHT22;42950;52.134;5.578;2023-06-22T02:47:58;17.90;99.90
23721;DHT22;42950;52.134;5.578;2023-06-22T02:50:24;17.90;99.90
23721;DHT22;42950;52.134;5.578;2023-06-22T02:52:49;17.90;99.90
23721;DHT22;42950;52.134;5.578;2023-06-22T02:55:15;17.90;99.90
23721;DHT22;42950;52.134;5.578;2023-06-22T02:57:41;17.80;99.90
23721;DHT22;42950;52.134;5.578;2023-06-22T03:00:09;17.80;99.90
23721;DHT22;42950;52.134;5.578;2023-06-22T03:02:43;17.80;99.90
23721;DHT22;42950;52.134;5.578;2023-06-22T03:05:10;17.80;99.90
23721;DHT22;42950;52.134;5.578;2023-06-22T03:07:42;17.70;99.90
23721;DHT22;42950;52.134;5.578;2023-06-22T03:10:09;17.80;99.90
23721;DHT22;42950;52.134;5.578;2023-06-22T03:12:35;17.80;99.90
23721;DHT22;42950;52.134;5.578;2023-06-22T03:15:01;17.80;99.90
23721;DHT22;42950;52.134;5.578;2023-06-22T03:17:27;17.80;99.90
23721;DHT22;42950;52.134;5.578;2023-06-22T03:19:53;17.70;99.90
23721;DHT22;42950;52.134;5.578;2023-06-22T03:22:20;17.70;99.90
23721;DHT22;42950;52.134;5.578;2023-06-22T03:24:46;17.70;99.90
23721;DHT22;42950;52.134;5.578;2023-06-22T03:27:11;17.60;99.90
23721;DHT22;42950;52.134;5.578;2023-06-22T03:29:37;17.60;99.90
23721;DHT22;42950;52.134;5.578;2023-06-22T03:32:03;17.60;99.90
23721;DHT22;42950;52.134;5.578;2023-06-22T03:34:31;17.60;99.90
23721;DHT22;42950;52.134;5.578;2023-06-22T03:36:59;17.50;99.90
23721;DHT22;42950;52.134;5.578;2023-06-22T03:39:25;17.50;99.90
23721;DHT22;42950;52.134;5.578;2023-06-22T03:41:51;17.40;99.90
23721;DHT22;42950;52.134;5.578;2023-06-22T03:44:16;17.40;99.90
23721;DHT22;42950;52.134;5.578;2023-06-22T03:46:42;17.40;99.90
23721;DHT22;42950;52.134;5.578;2023-06-22T03:49:08;17.30;99.90
23721;DHT22;42950;52.134;5.578;2023-06-22T03:51:33;17.20;99.90
23721;DHT22;42950;52.134;5.578;2023-06-22T03:53:59;17.20;99.90
23721;DHT22;42950;52.134;5.578;2023-06-22T03:56:25;17.10;99.90
23721;DHT22;42950;52.134;5.578;2023-06-22T03:58:51;17.20;99.90
23721;DHT22;42950;52.134;5.578;2023-06-22T04:01:17;17.20;99.90
23721;DHT22;42950;52.134;5.578;2023-06-22T04:03:42;17.20;99.90
23721;DHT22;42950;52.134;5.578;2023-06-22T04:06:09;17.30;99.90
23721;DHT22;42950;52.134;5.578;2023-06-22T04:08:35;17.30;99.90
23721;DHT22;42950;52.134;5.578;2023-06-22T04:11:01;17.30;99.90
23721;DHT22;42950;52.134;5.578;2023-06-22T04:13:26;17.30;99.90
23721;DHT22;42950;52.134;5.578;2023-06-22T04:15:52;17.30;99.90
23721;DHT22;42950;52.134;5.578;2023-06-22T04:18:17;17.40;99.90
23721;DHT22;42950;52.134;5.578;2023-06-22T04:20:43;17.30;99.90
23721;DHT22;42950;52.134;5.578;2023-06-22T04:23:12;17.40;99.90
23721;DHT22;42950;52.134;5.578;2023-06-22T04:25:43;17.40;99.90
23721;DHT22;42950;52.134;5.578;2023-06-22T04:28:09;17.40;99.90
23721;DHT22;42950;52.134;5.578;2023-06-22T04:30:38;17.40;99.90
23721;DHT22;42950;52.134;5.578;2023-06-22T04:33:12;17.50;99.90
23721;DHT22;42950;52.134;5.578;2023-06-22T04:35:39;17.60;99.90
23721;DHT22;42950;52.134;5.578;2023-06-22T04:38:08;17.60;99.90
23721;DHT22;42950;52.134;5.578;2023-06-22T04:40:34;17.60;99.90
23721;DHT22;42950;52.134;5.578;2023-06-22T04:42:59;17.70;99.90
23721;DHT22;42950;52.134;5.578;2023-06-22T04:45:28;17.80;99.90
23721;DHT22;42950;52.134;5.578;2023-06-22T04:47:57;17.80;99.90
23721;DHT22;42950;52.134;5.578;2023-06-22T04:50:23;17.90;99.90
23721;DHT22;42950;52.134;5.578;2023-06-22T04:52:50;17.90;99.90
23721;DHT22;42950;52.134;5.578;2023-06-22T04:55:16;18.00;99.90
23721;DHT22;42950;52.134;5.578;2023-06-22T04:57:50;18.00;99.90
23721;DHT22;42950;52.134;5.578;2023-06-22T05:00:20;18.10;99.90
23721;DHT22;42950;52.134;5.578;2023-06-22T05:02:48;18.10;99.90
23721;DHT22;42950;52.134;5.578;2023-06-22T05:05:15;18.20;99.90
23721;DHT22;42950;52.134;5.578;2023-06-22T05:07:45;18.20;99.90
23721;DHT22;42950;52.134;5.578;2023-06-22T05:10:13;18.20;99.90
23721;DHT22;42950;52.134;5.578;2023-06-22T05:12:40;18.30;99.90
23721;DHT22;42950;52.134;5.578;2023-06-22T05:15:10;18.30;99.90
23721;DHT22;42950;52.134;5.578;2023-06-22T05:17:36;18.40;99.90
23721;DHT22;42950;52.134;5.578;2023-06-22T05:20:11;18.50;99.90
23721;DHT22;42950;52.134;5.578;2023-06-22T05:22:41;18.40;99.90
23721;DHT22;42950;52.134;5.578;2023-06-22T05:25:10;18.50;99.90
23721;DHT22;42950;52.134;5.578;2023-06-22T05:27:36;18.60;99.90
23721;DHT22;42950;52.134;5.578;2023-06-22T05:30:09;18.70;99.90
23721;DHT22;42950;52.134;5.578;2023-06-22T05:32:35;18.70;99.90
23721;DHT22;42950;52.134;5.578;2023-06-22T05:35:01;18.80;99.90
23721;DHT22;42950;52.134;5.578;2023-06-22T05:37:27;18.80;99.90
23721;DHT22;42950;52.134;5.578;2023-06-22T05:39:53;18.90;99.90
23721;DHT22;42950;52.134;5.578;2023-06-22T05:42:21;19.00;99.90
23721;DHT22;42950;52.134;5.578;2023-06-22T05:44:46;19.10;99.90
23721;DHT22;42950;52.134;5.578;2023-06-22T05:47:12;19.20;99.90
23721;DHT22;42950;52.134;5.578;2023-06-22T05:49:38;19.30;99.90
23721;DHT22;42950;52.134;5.578;2023-06-22T05:52:04;19.40;99.90
23721;DHT22;42950;52.134;5.578;2023-06-22T05:54:29;19.40;99.90
23721;DHT22;42950;52.134;5.578;2023-06-22T05:56:55;19.50;99.90
23721;DHT22;42950;52.134;5.578;2023-06-22T05:59:21;19.50;99.90
23721;DHT22;42950;52.134;5.578;2023-06-22T06:01:46;19.70;99.90
23721;DHT22;42950;52.134;5.578;2023-06-22T06:04:19;19.80;99.90
23721;DHT22;42950;52.134;5.578;2023-06-22T06:06:45;20.00;99.90
23721;DHT22;42950;52.134;5.578;2023-06-22T06:09:13;20.00;99.90
23721;DHT22;42950;52.134;5.578;2023-06-22T06:11:39;20.10;99.90
23721;DHT22;42950;52.134;5.578;2023-06-22T06:14:05;20.20;99.90
23721;DHT22;42950;52.134;5.578;2023-06-22T06:16:30;20.20;99.90
23721;DHT22;42950;52.134;5.578;2023-06-22T06:18:56;20.20;99.90
23721;DHT22;42950;52.134;5.578;2023-06-22T06:21:24;20.30;99.90
23721;DHT22;42950;52.134;5.578;2023-06-22T06:23:49;20.30;99.90
23721;DHT22;42950;52.134;5.578;2023-06-22T06:26:15;20.40;99.90
23721;DHT22;42950;52.134;5.578;2023-06-22T06:28:43;20.40;99.90
23721;DHT22;42950;52.134;5.578;2023-06-22T06:31:09;20.50;99.90
23721;DHT22;42950;52.134;5.578;2023-06-22T06:33:35;20.60;99.90
23721;DHT22;42950;52.134;5.578;2023-06-22T06:36:01;20.60;99.90
23721;DHT22;42950;52.134;5.578;2023-06-22T06:38:31;20.60;99.90
23721;DHT22;42950;52.134;5.578;2023-06-22T06:40:58;20.70;99.90
23721;DHT22;42950;52.134;5.578;2023-06-22T06:43:23;20.80;99.90
23721;DHT22;42950;52.134;5.578;2023-06-22T06:45:50;20.80;99.90
23721;DHT22;42950;52.134;5.578;2023-06-22T06:48:15;20.70;99.90
23721;DHT22;42950;52.134;5.578;2023-06-22T06:50:41;20.70;99.90
23721;DHT22;42950;52.134;5.578;2023-06-22T06:53:09;20.80;99.90
23721;DHT22;42950;52.134;5.578;2023-06-22T06:55:35;20.90;99.90
23721;DHT22;42950;52.134;5.578;2023-06-22T06:58:01;21.00;99.90
23721;DHT22;42950;52.134;5.578;2023-06-22T07:00:28;21.10;99.90
23721;DHT22;42950;52.134;5.578;2023-06-22T07:02:53;21.20;99.90
23721;DHT22;42950;52.134;5.578;2023-06-22T07:05:19;21.20;99.90
23721;DHT22;42950;52.134;5.578;2023-06-22T07:07:44;21.30;99.90
23721;DHT22;42950;52.134;5.578;2023-06-22T07:10:10;21.40;99.90
23721;DHT22;42950;52.134;5.578;2023-06-22T07:12:36;21.40;99.90
23721;DHT22;42950;52.134;5.578;2023-06-22T07:15:06;21.50;99.90
23721;DHT22;42950;52.134;5.578;2023-06-22T07:17:36;21.60;99.90
23721;DHT22;42950;52.134;5.578;2023-06-22T07:20:03;21.70;99.90
23721;DHT22;42950;52.134;5.578;2023-06-22T07:22:35;21.90;99.90
23721;DHT22;42950;52.134;5.578;2023-06-22T07:25:01;22.00;99.90
23721;DHT22;42950;52.134;5.578;2023-06-22T07:27:30;22.20;99.90
23721;DHT22;42950;52.134;5.578;2023-06-22T07:30:00;22.30;99.90
23721;DHT22;42950;52.134;5.578;2023-06-22T07:32:26;22.50;99.90
23721;DHT22;42950;52.134;5.578;2023-06-22T07:34:51;22.40;99.90
23721;DHT22;42950;52.134;5.578;2023-06-22T07:37:17;22.50;99.90
23721;DHT22;42950;52.134;5.578;2023-06-22T07:39:42;22.60;99.90
23721;DHT22;42950;52.134;5.578;2023-06-22T07:42:08;22.80;99.90
23721;DHT22;42950;52.134;5.578;2023-06-22T07:44:34;22.90;99.90
23721;DHT22;42950;52.134;5.578;2023-06-22T07:47:00;23.00;99.90
23721;DHT22;42950;52.134;5.578;2023-06-22T07:49:25;23.10;99.90
23721;DHT22;42950;52.134;5.578;2023-06-22T07:51:51;23.30;99.90
23721;DHT22;42950;52.134;5.578;2023-06-22T07:54:16;23.40;99.90
23721;DHT22;42950;52.134;5.578;2023-06-22T07:56:42;23.60;99.90
23721;DHT22;42950;52.134;5.578;2023-06-22T07:59:08;23.70;99.90
23721;DHT22;42950;52.134;5.578;2023-06-22T08:01:34;23.80;99.90
23721;DHT22;42950;52.134;5.578;2023-06-22T08:03:59;23.90;99.90
23721;DHT22;42950;52.134;5.578;2023-06-22T08:06:25;24.10;99.90
23721;DHT22;42950;52.134;5.578;2023-06-22T08:08:50;24.20;99.90
23721;DHT22;42950;52.134;5.578;2023-06-22T08:11:19;24.10;99.90
23721;DHT22;42950;52.134;5.578;2023-06-22T08:13:44;24.10;99.90
23721;DHT22;42950;52.134;5.578;2023-06-22T08:16:10;24.10;99.90
23721;DHT22;42950;52.134;5.578;2023-06-22T08:18:36;24.10;99.90
23721;DHT22;42950;52.134;5.578;2023-06-22T08:21:01;24.30;99.90
23721;DHT22;42950;52.134;5.578;2023-06-22T08:23:27;24.50;99.90
23721;DHT22;42950;52.134;5.578;2023-06-22T08:25:52;24.60;99.90
23721;DHT22;42950;52.134;5.578;2023-06-22T08:28:18;24.60;99.90
23721;DHT22;42950;52.134;5.578;2023-06-22T08:30:44;24.90;99.90
23721;DHT22;42950;52.134;5.578;2023-06-22T08:33:09;25.00;99.90
23721;DHT22;42950;52.134;5.578;2023-06-22T08:35:35;25.20;99.90
23721;DHT22;42950;52.134;5.578;2023-06-22T08:38:00;25.20;99.90
23721;DHT22;42950;52.134;5.578;2023-06-22T08:40:27;25.10;99.90
23721;DHT22;42950;52.134;5.578;2023-06-22T08:42:54;25.00;99.90
23721;DHT22;42950;52.134;5.578;2023-06-22T08:45:20;25.20;99.90
23721;DHT22;42950;52.134;5.578;2023-06-22T08:47:46;25.30;99.90
23721;DHT22;42950;52.134;5.578;2023-06-22T08:50:12;25.30;99.90
23721;DHT22;42950;52.134;5.578;2023-06-22T08:52:38;25.20;99.90
23721;DHT22;42950;52.134;5.578;2023-06-22T08:55:07;25.30;99.90
23721;DHT22;42950;52.134;5.578;2023-06-22T08:57:32;25.70;99.90
23721;DHT22;42950;52.134;5.578;2023-06-22T08:59:58;25.70;99.90
23721;DHT22;42950;52.134;5.578;2023-06-22T09:02:27;25.90;99.90
23721;DHT22;42950;52.134;5.578;2023-06-22T09:04:57;26.00;99.90
23721;DHT22;42950;52.134;5.578;2023-06-22T09:07:23;26.10;99.90
23721;DHT22;42950;52.134;5.578;2023-06-22T09:09:50;26.10;99.90
23721;DHT22;42950;52.134;5.578;2023-06-22T09:12:16;26.00;99.90
23721;DHT22;42950;52.134;5.578;2023-06-22T09:14:42;25.90;99.90
23721;DHT22;42950;52.134;5.578;2023-06-22T09:17:08;26.10;99.90
23721;DHT22;42950;52.134;5.578;2023-06-22T09:19:33;26.30;99.90
23721;DHT22;42950;52.134;5.578;2023-06-22T09:21:59;26.50;99.90
23721;DHT22;42950;52.134;5.578;2023-06-22T09:24:25;26.80;99.90
23721;DHT22;42950;52.134;5.578;2023-06-22T09:26:51;27.00;99.90
23721;DHT22;42950;52.134;5.578;2023-06-22T09:29:16;27.30;99.90
23721;DHT22;42950;52.134;5.578;2023-06-22T09:31:42;27.50;99.90
23721;DHT22;42950;52.134;5.578;2023-06-22T09:34:08;27.60;99.90
23721;DHT22;42950;52.134;5.578;2023-06-22T09:36:36;27.70;99.90
23721;DHT22;42950;52.134;5.578;2023-06-22T09:39:02;27.80;99.90
23721;DHT22;42950;52.134;5.578;2023-06-22T09:41:31;27.90;99.90
23721;DHT22;42950;52.134;5.578;2023-06-22T09:43:57;27.70;99.90
23721;DHT22;42950;52.134;5.578;2023-06-22T09:46:23;27.50;99.90
23721;DHT22;42950;52.134;5.578;2023-06-22T09:48:50;27.60;99.90
23721;DHT22;42950;52.134;5.578;2023-06-22T09:51:16;27.20;99.90
23721;DHT22;42950;52.134;5.578;2023-06-22T09:53:42;27.20;99.90
23721;DHT22;42950;52.134;5.578;2023-06-22T09:56:09;27.40;99.90
23721;DHT22;42950;52.134;5.578;2023-06-22T09:58:40;27.40;99.90
23721;DHT22;42950;52.134;5.578;2023-06-22T10:01:06;27.50;99.90
23721;DHT22;42950;52.134;5.578;2023-06-22T10:03:31;27.40;99.90
23721;DHT22;42950;52.134;5.578;2023-06-22T10:05:57;27.30;99.90
23721;DHT22;42950;52.134;5.578;2023-06-22T10:08:23;27.20;99.90
23721;DHT22;42950;52.134;5.578;2023-06-22T10:10:48;27.10;99.90
23721;DHT22;42950;52.134;5.578;2023-06-22T10:13:14;27.00;99.90
23721;DHT22;42950;52.134;5.578;2023-06-22T10:15:41;26.90;99.90
23721;DHT22;42950;52.134;5.578;2023-06-22T10:18:08;27.00;99.90
23721;DHT22;42950;52.134;5.578;2023-06-22T10:20:33;26.90;99.90
23721;DHT22;42950;52.134;5.578;2023-06-22T10:22:59;26.80;99.90
23721;DHT22;42950;52.134;5.578;2023-06-22T10:25:27;26.50;99.90
23721;DHT22;42950;52.134;5.578;2023-06-22T10:27:53;26.30;99.90
23721;DHT22;42950;52.134;5.578;2023-06-22T10:30:18;26.30;99.90
23721;DHT22;42950;52.134;5.578;2023-06-22T10:32:45;26.20;99.90
23721;DHT22;42950;52.134;5.578;2023-06-22T10:35:11;26.10;99.90
23721;DHT22;42950;52.134;5.578;2023-06-22T10:37:39;25.80;99.90
23721;DHT22;42950;52.134;5.578;2023-06-22T10:40:06;25.70;99.90
23721;DHT22;42950;52.134;5.578;2023-06-22T10:42:33;25.60;99.90
23721;DHT22;42950;52.134;5.578;2023-06-22T10:44:58;25.70;99.90
23721;DHT22;42950;52.134;5.578;2023-06-22T10:47:24;25.60;99.90
23721;DHT22;42950;52.134;5.578;2023-06-22T10:49:50;25.60;99.90
23721;DHT22;42950;52.134;5.578;2023-06-22T10:52:15;25.40;99.90
23721;DHT22;42950;52.134;5.578;2023-06-22T10:54:42;25.40;99.90
23721;DHT22;42950;52.134;5.578;2023-06-22T10:57:08;25.30;99.90
23721;DHT22;42950;52.134;5.578;2023-06-22T10:59:33;25.40;99.90
23721;DHT22;42950;52.134;5.578;2023-06-22T11:01:59;25.40;99.90
23721;DHT22;42950;52.134;5.578;2023-06-22T11:04:25;25.30;99.90
23721;DHT22;42950;52.134;5.578;2023-06-22T11:06:51;25.40;99.90
23721;DHT22;42950;52.134;5.578;2023-06-22T11:09:17;25.50;99.90
23721;DHT22;42950;52.134;5.578;2023-06-22T11:11:51;25.70;99.90
23721;DHT22;42950;52.134;5.578;2023-06-22T11:14:18;26.00;99.90
23721;DHT22;42950;52.134;5.578;2023-06-22T11:16:44;26.00;99.90
23721;DHT22;42950;52.134;5.578;2023-06-22T11:19:10;25.90;99.90
23721;DHT22;42950;52.134;5.578;2023-06-22T11:21:35;26.00;99.90
23721;DHT22;42950;52.134;5.578;2023-06-22T11:24:01;26.00;99.90
23721;DHT22;42950;52.134;5.578;2023-06-22T11:26:26;26.00;99.90
23721;DHT22;42950;52.134;5.578;2023-06-22T11:28:55;25.80;99.90
23721;DHT22;42950;52.134;5.578;2023-06-22T11:31:21;25.90;99.90
23721;DHT22;42950;52.134;5.578;2023-06-22T11:33:46;25.90;99.90
23721;DHT22;42950;52.134;5.578;2023-06-22T11:36:13;25.90;99.90
23721;DHT22;42950;52.134;5.578;2023-06-22T11:38:40;26.00;99.90
23721;DHT22;42950;52.134;5.578;2023-06-22T11:41:09;26.20;99.90
23721;DHT22;42950;52.134;5.578;2023-06-22T11:43:35;26.20;99.90
23721;DHT22;42950;52.134;5.578;2023-06-22T11:46:03;26.00;99.90
23721;DHT22;42950;52.134;5.578;2023-06-22T11:48:29;26.00;99.90
23721;DHT22;42950;52.134;5.578;2023-06-22T11:50:55;26.00;99.90
23721;DHT22;42950;52.134;5.578;2023-06-22T11:53:21;25.80;99.90
23721;DHT22;42950;52.134;5.578;2023-06-22T11:55:48;25.70;99.90
23721;DHT22;42950;52.134;5.578;2023-06-22T11:58:15;25.60;99.90
23721;DHT22;42950;52.134;5.578;2023-06-22T12:00:41;25.70;99.90
23721;DHT22;42950;52.134;5.578;2023-06-22T12:03:07;25.80;99.90
23721;DHT22;42950;52.134;5.578;2023-06-22T12:05:33;26.10;99.90
23721;DHT22;42950;52.134;5.578;2023-06-22T12:07:58;26.10;99.90
23721;DHT22;42950;52.134;5.578;2023-06-22T12:10:25;26.00;99.90
23721;DHT22;42950;52.134;5.578;2023-06-22T12:12:51;25.70;99.90
23721;DHT22;42950;52.134;5.578;2023-06-22T12:15:17;25.60;99.90
23721;DHT22;42950;52.134;5.578;2023-06-22T12:17:44;25.50;99.90
23721;DHT22;42950;52.134;5.578;2023-06-22T12:20:09;25.20;99.90
23721;DHT22;42950;52.134;5.578;2023-06-22T12:22:35;25.20;99.90
23721;DHT22;42950;52.134;5.578;2023-06-22T12:25:03;25.30;99.90
23721;DHT22;42950;52.134;5.578;2023-06-22T12:27:29;25.30;99.90
23721;DHT22;42950;52.134;5.578;2023-06-22T12:29:56;25.30;99.90
23721;DHT22;42950;52.134;5.578;2023-06-22T12:32:24;25.30;99.90
23721;DHT22;42950;52.134;5.578;2023-06-22T12:34:51;25.20;99.90
23721;DHT22;42950;52.134;5.578;2023-06-22T12:37:16;25.10;99.90
23721;DHT22;42950;52.134;5.578;2023-06-22T12:39:42;24.90;99.90
23721;DHT22;42950;52.134;5.578;2023-06-22T12:42:08;24.70;99.90
23721;DHT22;42950;52.134;5.578;2023-06-22T12:44:43;24.50;99.90
23721;DHT22;42950;52.134;5.578;2023-06-22T12:47:09;24.50;99.90
23721;DHT22;42950;52.134;5.578;2023-06-22T12:49:35;24.50;99.90
23721;DHT22;42950;52.134;5.578;2023-06-22T12:52:02;24.60;99.90
23721;DHT22;42950;52.134;5.578;2023-06-22T12:54:27;24.70;99.90
23721;DHT22;42950;52.134;5.578;2023-06-22T12:56:55;24.80;99.90
23721;DHT22;42950;52.134;5.578;2023-06-22T12:59:20;24.70;99.90
23721;DHT22;42950;52.134;5.578;2023-06-22T13:01:46;24.70;99.90
23721;DHT22;42950;52.134;5.578;2023-06-22T13:04:12;24.80;99.90
23721;DHT22;42950;52.134;5.578;2023-06-22T13:06:40;24.80;99.90
23721;DHT22;42950;52.134;5.578;2023-06-22T13:09:06;24.90;99.90
23721;DHT22;42950;52.134;5.578;2023-06-22T13:11:32;24.90;99.90
23721;DHT22;42950;52.134;5.578;2023-06-22T13:13:57;24.80;99.90
23721;DHT22;42950;52.134;5.578;2023-06-22T13:16:23;24.80;99.90
23721;DHT22;42950;52.134;5.578;2023-06-22T13:18:49;24.80;99.90
23721;DHT22;42950;52.134;5.578;2023-06-22T13:21:15;24.70;99.90
23721;DHT22;42950;52.134;5.578;2023-06-22T13:23:41;24.60;99.90
23721;DHT22;42950;52.134;5.578;2023-06-22T13:26:07;24.60;99.90
23721;DHT22;42950;52.134;5.578;2023-06-22T13:28:33;24.60;99.90
23721;DHT22;42950;52.134;5.578;2023-06-22T13:30:58;24.50;99.90
23721;DHT22;42950;52.134;5.578;2023-06-22T13:33:24;24.30;99.90
23721;DHT22;42950;52.134;5.578;2023-06-22T13:35:49;24.30;99.90
23721;DHT22;42950;52.134;5.578;2023-06-22T13:38:15;24.10;99.90
23721;DHT22;42950;52.134;5.578;2023-06-22T13:40:41;24.00;99.90
23721;DHT22;42950;52.134;5.578;2023-06-22T13:43:07;23.90;99.90
23721;DHT22;42950;52.134;5.578;2023-06-22T13:45:33;23.90;99.90
23721;DHT22;42950;52.134;5.578;2023-06-22T13:47:59;24.00;99.90
23721;DHT22;42950;52.134;5.578;2023-06-22T13:50:25;24.00;99.90
23721;DHT22;42950;52.134;5.578;2023-06-22T13:52:50;23.90;99.90
23721;DHT22;42950;52.134;5.578;2023-06-22T13:55:16;23.90;99.90
23721;DHT22;42950;52.134;5.578;2023-06-22T13:57:42;23.80;99.90
23721;DHT22;42950;52.134;5.578;2023-06-22T14:00:09;23.80;99.90
23721;DHT22;42950;52.134;5.578;2023-06-22T14:02:34;23.80;99.90
23721;DHT22;42950;52.134;5.578;2023-06-22T14:05:00;23.80;99.90
23721;DHT22;42950;52.134;5.578;2023-06-22T14:07:27;23.90;99.90
23721;DHT22;42950;52.134;5.578;2023-06-22T14:09:53;23.90;99.90
23721;DHT22;42950;52.134;5.578;2023-06-22T14:12:19;23.80;99.90
23721;DHT22;42950;52.134;5.578;2023-06-22T14:14:44;23.70;99.90
23721;DHT22;42950;52.134;5.578;2023-06-22T14:17:11;23.70;99.90
23721;DHT22;42950;52.134;5.578;2023-06-22T14:19:36;23.60;99.90
23721;DHT22;42950;52.134;5.578;2023-06-22T14:22:02;23.70;99.90
23721;DHT22;42950;52.134;5.578;2023-06-22T14:24:28;23.60;99.90
23721;DHT22;42950;52.134;5.578;2023-06-22T14:26:55;23.50;99.90
23721;DHT22;42950;52.134;5.578;2023-06-22T14:29:24;23.50;99.90
23721;DHT22;42950;52.134;5.578;2023-06-22T14:31:50;23.40;99.90
23721;DHT22;42950;52.134;5.578;2023-06-22T14:34:16;23.30;99.90
23721;DHT22;42950;52.134;5.578;2023-06-22T14:36:42;23.10;99.90
23721;DHT22;42950;52.134;5.578;2023-06-22T14:39:08;23.10;99.90
23721;DHT22;42950;52.134;5.578;2023-06-22T14:41:33;23.00;99.90
23721;DHT22;42950;52.134;5.578;2023-06-22T14:43:59;23.00;99.90
23721;DHT22;42950;52.134;5.578;2023-06-22T14:46:24;22.90;99.90
23721;DHT22;42950;52.134;5.578;2023-06-22T14:48:50;22.70;99.90
23721;DHT22;42950;52.134;5.578;2023-06-22T14:51:16;22.70;99.90
23721;DHT22;42950;52.134;5.578;2023-06-22T14:53:43;22.60;99.90
23721;DHT22;42950;52.134;5.578;2023-06-22T14:56:08;22.60;99.90
23721;DHT22;42950;52.134;5.578;2023-06-22T14:58:34;22.50;99.90
23721;DHT22;42950;52.134;5.578;2023-06-22T15:01:02;22.60;99.90
23721;DHT22;42950;52.134;5.578;2023-06-22T15:03:28;22.60;99.90
23721;DHT22;42950;52.134;5.578;2023-06-22T15:05:56;22.60;99.90
23721;DHT22;42950;52.134;5.578;2023-06-22T15:08:22;22.60;99.90
23721;DHT22;42950;52.134;5.578;2023-06-22T15:10:47;22.60;99.90
23721;DHT22;42950;52.134;5.578;2023-06-22T15:13:13;22.60;99.90
23721;DHT22;42950;52.134;5.578;2023-06-22T15:15:38;22.40;99.90
23721;DHT22;42950;52.134;5.578;2023-06-22T15:18:04;22.20;99.90
23721;DHT22;42950;52.134;5.578;2023-06-22T15:20:29;22.00;99.90
23721;DHT22;42950;52.134;5.578;2023-06-22T15:22:57;21.70;99.90
23721;DHT22;42950;52.134;5.578;2023-06-22T15:25:22;21.60;99.90
23721;DHT22;42950;52.134;5.578;2023-06-22T15:27:48;21.60;99.90
23721;DHT22;42950;52.134;5.578;2023-06-22T15:30:14;21.60;99.90